Time;durP1;ratioP1;P1;durP2;ratioP2;P2;SDS_P1;SDS_P2;PMS_P1;PMS_P2;Temp;Humidity;BMP_temperature;BMP_pressure;BME280_temperature;BME280_humidity;BME280_pressure;Samples;Min_cycle;Max_cycle;Signal;HPM_P1;HPM_P2
2022/09/07 00:01:00;;;;;;;19.45;5.38;;;18.10;99.90;;;;;;4993026;28;20026;-70
2022/09/07 00:03:26;;;;;;;15.50;5.38;;;18.00;99.90;;;;;;4992032;28;20015;-71
2022/09/07 00:05:52;;;;;;;14.57;4.90;;;18.00;99.90;;;;;;4992038;28;20030;-70
2022/09/07 00:08:20;;;;;;;15.70;4.22;;;18.00;99.90;;;;;;4992518;28;20109;-71
2022/09/07 00:10:55;;;;;;;15.07;4.57;;;18.00;99.90;;;;;;4992267;28;20120;-70
2022/09/07 00:13:22;;;;;;;15.18;4.43;;;17.90;99.90;;;;;;4992852;28;20464;-70
2022/09/07 00:15:48;;;;;;;7.65;2.78;;;17.90;99.90;;;;;;4990083;28;20073;-71
2022/09/07 00:18:14;;;;;;;9.18;3.30;;;17.80;99.90;;;;;;4992413;28;20026;-70
2022/09/07 00:20:39;;;;;;;10.48;3.72;;;17.80;99.90;;;;;;4991894;28;20022;-70
2022/09/07 00:23:05;;;;;;;11.10;3.67;;;17.60;99.90;;;;;;4992295;28;20053;-72
2022/09/07 00:25:30;;;;;;;8.32;2.95;;;17.50;99.90;;;;;;4992167;28;20034;-70
2022/09/07 00:27:56;;;;;;;9.77;3.15;;;17.50;99.90;;;;;;4993496;28;20049;-71
2022/09/07 00:30:21;;;;;;;11.23;3.53;;;17.40;99.90;;;;;;4995824;28;20039;-70
2022/09/07 00:32:47;;;;;;;10.32;4.35;;;17.40;99.90;;;;;;4996338;28;20072;-70
2022/09/07 00:35:12;;;;;;;8.98;3.25;;;17.50;99.90;;;;;;4996178;28;20026;-72
2022/09/07 00:37:38;;;;;;;11.38;3.20;;;17.40;99.90;;;;;;4996274;28;20026;-72
2022/09/07 00:40:04;;;;;;;9.75;3.28;;;17.40;99.90;;;;;;4996239;28;20022;-70
2022/09/07 00:42:30;;;;;;;7.60;2.88;;;17.30;99.90;;;;;;4996165;28;20118;-71
2022/09/07 00:45:06;;;;;;;6.50;2.67;;;17.30;99.90;;;;;;4996192;28;20069;-69
2022/09/07 00:47:49;;;;;;;8.95;2.78;;;17.30;99.90;;;;;;4994136;28;20033;-70
2022/09/07 00:50:24;;;;;;;7.70;2.92;;;17.20;99.90;;;;;;4994391;28;20100;-72
2022/09/07 00:52:56;;;;;;;8.38;2.72;;;17.20;99.90;;;;;;4993531;28;20026;-70
2022/09/07 00:55:22;;;;;;;7.20;2.47;;;17.10;99.90;;;;;;4995885;28;20023;-73
2022/09/07 00:57:51;;;;;;;6.82;2.58;;;17.10;99.90;;;;;;4996388;28;20471;-72
2022/09/07 01:00:17;;;;;;;2.80;1.88;;;17.10;99.90;;;;;;4996213;28;20437;-74
2022/09/07 01:02:44;;;;;;;6.05;2.35;;;17.10;99.90;;;;;;4996155;28;20026;-70
2022/09/07 01:05:20;;;;;;;6.72;2.88;;;17.00;99.90;;;;;;4996006;28;20606;-72
2022/09/07 01:07:46;;;;;;;9.10;2.45;;;17.00;99.90;;;;;;4996038;28;20022;-69
2022/09/07 01:10:12;;;;;;;6.68;2.50;;;17.00;99.90;;;;;;4995607;28;20053;-74
2022/09/07 01:12:37;;;;;;;8.77;2.53;;;17.00;99.90;;;;;;4995829;28;20022;-73
2022/09/07 01:15:04;;;;;;;8.07;2.70;;;17.10;99.90;;;;;;4995468;28;20037;-71
2022/09/07 01:17:38;;;;;;;4.68;2.20;;;17.10;99.90;;;;;;4995811;28;20503;-67
2022/09/07 01:20:13;;;;;;;5.40;2.25;;;17.10;99.90;;;;;;4994351;28;20486;-69
2022/09/07 01:23:11;;;;;;;6.07;2.03;;;17.10;99.90;;;;;;4995814;28;20069;-72
2022/09/07 01:26:12;;;;;;;7.40;2.20;;;17.10;99.90;;;;;;4995420;28;20117;-70
2022/09/07 01:28:38;;;;;;;9.55;2.90;;;17.10;99.90;;;;;;4995946;28;20033;-69
2022/09/07 01:31:18;;;;;;;8.05;3.20;;;17.10;99.90;;;;;;4995649;28;20022;-68
2022/09/07 01:34:09;;;;;;;11.45;2.95;;;17.20;99.90;;;;;;4995796;28;20026;-70
2022/09/07 01:36:49;;;;;;;6.10;3.10;;;17.20;99.90;;;;;;4995552;28;20065;-70
2022/09/07 01:39:16;;;;;;;5.88;2.53;;;17.20;99.90;;;;;;4994898;28;20040;-71
2022/09/07 01:41:52;;;;;;;7.13;2.33;;;17.30;99.90;;;;;;4993858;28;20065;-70
2022/09/07 01:44:30;;;;;;;2.58;2.00;;;17.30;99.90;;;;;;4995123;28;20038;-68
2022/09/07 01:47:20;;;;;;;4.95;2.17;;;17.30;99.90;;;;;;4993671;28;20420;-68
2022/09/07 01:49:55;;;;;;;3.92;1.92;;;17.30;99.90;;;;;;4990950;28;20034;-70
2022/09/07 01:52:36;;;;;;;4.00;2.03;;;17.30;99.90;;;;;;4995332;28;20037;-70
2022/09/07 01:55:09;;;;;;;4.90;2.35;;;17.30;99.90;;;;;;4994947;28;20058;-70
2022/09/07 01:57:58;;;;;;;4.78;2.35;;;17.30;99.90;;;;;;4994745;28;20022;-73
2022/09/07 02:00:24;;;;;;;4.57;2.33;;;17.30;99.90;;;;;;4994647;28;20022;-70
2022/09/07 02:03:05;;;;;;;6.90;2.90;;;17.40;99.90;;;;;;4995042;28;20487;-69
2022/09/07 02:05:41;;;;;;;4.63;2.20;;;17.40;99.90;;;;;;4994865;28;20042;-72
2022/09/07 02:08:24;;;;;;;3.67;2.20;;;17.40;99.90;;;;;;4993461;28;20030;-70
2022/09/07 02:11:06;;;;;;;3.78;2.10;;;17.40;99.90;;;;;;4994751;28;20188;-70
2022/09/07 02:13:57;;;;;;;4.13;2.50;;;17.40;99.90;;;;;;4994776;28;20376;-70
2022/09/07 02:16:28;;;;;;;4.97;2.10;;;17.40;99.90;;;;;;4994744;28;20026;-69
2022/09/07 02:19:15;;;;;;;4.95;1.88;;;17.40;99.90;;;;;;4994897;28;20022;-70
2022/09/07 02:21:44;;;;;;;4.50;1.98;;;17.50;99.90;;;;;;4992946;28;20353;-69
2022/09/07 02:24:18;;;;;;;5.22;2.20;;;17.50;99.90;;;;;;4994688;28;20030;-71
2022/09/07 02:26:47;;;;;;;3.30;1.85;;;17.50;99.90;;;;;;4994419;28;20093;-70
2022/09/07 02:29:13;;;;;;;5.53;2.20;;;17.50;99.90;;;;;;4994427;28;20026;-69
2022/09/07 02:31:39;;;;;;;5.13;2.50;;;17.60;99.90;;;;;;4994369;28;20097;-69
2022/09/07 02:34:05;;;;;;;5.32;2.50;;;17.50;99.90;;;;;;4992896;28;20018;-69
2022/09/07 02:36:43;;;;;;;6.03;2.53;;;17.50;99.90;;;;;;4994325;28;20329;-71
2022/09/07 02:39:09;;;;;;;10.02;3.90;;;17.50;99.90;;;;;;4994523;28;20026;-69
2022/09/07 02:41:38;;;;;;;11.77;3.78;;;17.50;99.90;;;;;;4994356;28;20037;-73
2022/09/07 02:44:09;;;;;;;9.65;2.53;;;17.50;99.90;;;;;;4994388;28;20032;-73
2022/09/07 02:46:59;;;;;;;8.65;2.65;;;17.50;99.90;;;;;;4994184;28;20030;-76
2022/09/07 02:49:56;;;;;;;5.70;2.08;;;17.50;99.90;;;;;;4994459;28;20029;-73
2022/09/07 02:52:34;;;;;;;9.00;2.90;;;17.40;99.90;;;;;;4993316;28;20018;-71
2022/09/07 02:55:14;;;;;;;6.65;2.15;;;17.40;99.90;;;;;;4994114;28;20025;-72
2022/09/07 02:57:47;;;;;;;5.32;2.30;;;17.40;99.90;;;;;;4994059;28;20069;-72
2022/09/07 03:00:17;;;;;;;5.97;2.25;;;17.40;99.90;;;;;;4994105;28;20026;-72
2022/09/07 03:02:46;;;;;;;7.07;2.40;;;17.30;99.90;;;;;;4993893;28;20037;-71
2022/09/07 03:05:34;;;;;;;4.47;2.35;;;17.30;99.90;;;;;;4993135;28;20085;-72
2022/09/07 03:08:06;;;;;;;3.22;2.20;;;17.20;99.90;;;;;;4993738;28;20034;-71
2022/09/07 03:10:32;;;;;;;6.00;2.13;;;17.20;99.90;;;;;;4993515;28;20046;-71
2022/09/07 03:12:58;;;;;;;6.90;2.35;;;17.20;99.90;;;;;;4993784;28;20072;-71
2022/09/07 03:15:26;;;;;;;6.07;2.83;;;17.20;99.90;;;;;;4993286;28;20038;-71
2022/09/07 03:17:52;;;;;;;6.45;2.65;;;17.10;99.90;;;;;;4993359;28;20081;-70
2022/09/07 03:20:19;;;;;;;5.97;2.70;;;17.10;99.90;;;;;;4993559;28;20045;-73
2022/09/07 03:22:48;;;;;;;6.60;2.63;;;17.00;99.90;;;;;;4993179;28;20106;-71
2022/09/07 03:25:14;;;;;;;5.03;2.70;;;17.00;99.90;;;;;;4992968;28;20248;-70
2022/09/07 03:27:40;;;;;;;5.65;2.60;;;17.00;99.90;;;;;;4991974;28;20538;-73
2022/09/07 03:30:08;;;;;;;6.32;2.83;;;16.90;99.90;;;;;;4993411;28;20071;-69
2022/09/07 03:32:36;;;;;;;7.53;2.53;;;16.90;99.90;;;;;;4992851;28;20157;-70
2022/09/07 03:35:04;;;;;;;6.82;2.95;;;16.80;99.90;;;;;;4993037;28;20360;-70
2022/09/07 03:37:29;;;;;;;7.93;2.20;;;16.70;99.90;;;;;;4993370;28;20457;-75
2022/09/07 03:39:55;;;;;;;5.00;2.00;;;16.70;99.90;;;;;;4993270;28;20033;-71
2022/09/07 03:42:21;;;;;;;6.15;2.25;;;16.70;99.90;;;;;;4993092;28;20101;-71
2022/09/07 03:44:48;;;;;;;3.65;2.28;;;16.60;99.90;;;;;;4992880;28;20449;-72
2022/09/07 03:47:15;;;;;;;5.65;2.25;;;16.60;99.90;;;;;;4992888;28;20037;-70
2022/09/07 03:49:40;;;;;;;7.03;2.83;;;16.60;99.90;;;;;;4993033;28;20101;-71
2022/09/07 03:52:06;;;;;;;4.65;2.60;;;16.60;99.90;;;;;;4992999;28;20110;-72
2022/09/07 03:54:31;;;;;;;6.45;2.40;;;16.60;99.90;;;;;;4993027;28;20037;-75
2022/09/07 03:56:57;;;;;;;4.60;2.47;;;16.50;99.90;;;;;;4993002;28;20449;-71
2022/09/07 03:59:22;;;;;;;5.32;2.53;;;16.50;99.90;;;;;;4992820;28;20461;-72
2022/09/07 04:01:48;;;;;;;7.47;3.10;;;16.50;99.90;;;;;;4992574;28;20019;-71
2022/09/07 04:04:13;;;;;;;5.47;2.70;;;16.50;99.90;;;;;;4992452;28;20495;-73
2022/09/07 04:06:39;;;;;;;9.10;2.92;;;16.50;99.90;;;;;;4991421;28;20082;-71
2022/09/07 04:09:07;;;;;;;7.32;3.22;;;16.50;99.90;;;;;;4992591;28;20084;-72
2022/09/07 04:11:33;;;;;;;8.63;3.42;;;16.50;99.90;;;;;;4992634;28;20055;-70
2022/09/07 04:13:59;;;;;;;9.18;3.25;;;16.40;99.90;;;;;;4992777;28;20041;-72
2022/09/07 04:16:26;;;;;;;8.95;4.13;;;16.40;99.90;;;;;;4991236;28;20456;-77
2022/09/07 04:18:56;;;;;;;12.80;4.03;;;16.40;99.90;;;;;;4993128;28;20026;-71
2022/09/07 04:21:23;;;;;;;7.18;3.88;;;16.40;99.90;;;;;;4992564;28;20018;-74
2022/09/07 04:23:49;;;;;;;10.23;4.50;;;16.40;99.90;;;;;;4992724;28;20023;-77
2022/09/07 04:26:20;;;;;;;11.48;4.72;;;16.40;99.90;;;;;;4992649;28;20045;-71
2022/09/07 04:28:46;;;;;;;13.50;4.65;;;16.40;99.90;;;;;;4992467;28;20034;-73
2022/09/07 04:31:14;;;;;;;11.05;5.40;;;16.40;99.90;;;;;;4992720;28;20034;-74
2022/09/07 04:33:40;;;;;;;9.48;4.55;;;16.40;99.90;;;;;;4992522;28;20598;-71
2022/09/07 04:36:06;;;;;;;10.88;4.75;;;16.40;99.90;;;;;;4992730;28;20197;-72
2022/09/07 04:38:31;;;;;;;12.43;4.82;;;16.40;99.90;;;;;;4992481;28;20049;-71
2022/09/07 04:41:07;;;;;;;11.10;3.90;;;16.30;99.90;;;;;;4992155;28;20033;-72
2022/09/07 04:43:32;;;;;;;10.75;3.60;;;16.30;99.90;;;;;;4992605;28;20048;-71
2022/09/07 04:46:10;;;;;;;14.50;4.18;;;16.30;99.90;;;;;;4992479;28;20445;-74
2022/09/07 04:48:35;;;;;;;12.45;4.88;;;16.30;99.90;;;;;;4992735;28;20364;-72
2022/09/07 04:51:06;;;;;;;12.15;4.20;;;16.30;99.90;;;;;;4992083;28;20022;-71
2022/09/07 04:53:33;;;;;;;8.57;4.38;;;16.30;99.90;;;;;;4992070;28;20019;-72
2022/09/07 04:55:59;;;;;;;6.82;3.88;;;16.30;99.90;;;;;;4992426;28;20169;-71
2022/09/07 04:58:25;;;;;;;8.77;4.07;;;16.30;99.90;;;;;;4992441;28;20102;-71
2022/09/07 05:00:51;;;;;;;12.07;4.90;;;16.30;99.90;;;;;;4992411;28;20029;-74
2022/09/07 05:03:17;;;;;;;9.38;4.30;;;16.30;99.90;;;;;;4992830;28;20018;-72
2022/09/07 05:05:43;;;;;;;9.07;3.92;;;16.30;99.90;;;;;;4992987;28;20038;-73
2022/09/07 05:08:09;;;;;;;11.23;4.50;;;16.30;99.90;;;;;;4992644;28;20026;-76
2022/09/07 05:10:35;;;;;;;10.52;5.15;;;16.30;99.90;;;;;;4992145;28;20050;-74
2022/09/07 05:13:01;;;;;;;12.68;6.38;;;16.30;99.90;;;;;;4991326;28;20048;-72
2022/09/07 05:15:31;;;;;;;10.40;5.18;;;16.30;99.90;;;;;;4994496;28;20018;-73
2022/09/07 05:17:57;;;;;;;14.88;6.93;;;16.30;99.90;;;;;;4996181;28;20022;-72
2022/09/07 05:20:23;;;;;;;16.48;5.60;;;16.30;99.90;;;;;;4995729;28;20413;-73
2022/09/07 05:22:58;;;;;;;10.90;5.45;;;16.30;99.90;;;;;;4995701;28;20026;-73
2022/09/07 05:25:27;;;;;;;11.10;4.90;;;16.30;99.90;;;;;;4995739;28;20062;-73
2022/09/07 05:27:54;;;;;;;11.05;5.00;;;16.30;99.90;;;;;;4994688;28;20053;-73
2022/09/07 05:30:20;;;;;;;12.38;4.85;;;16.30;99.90;;;;;;4995920;28;20030;-72
2022/09/07 05:32:46;;;;;;;11.43;4.85;;;16.30;99.90;;;;;;4996026;28;20034;-72
2022/09/07 05:35:12;;;;;;;10.43;5.07;;;16.30;99.90;;;;;;4994103;28;20572;-76
2022/09/07 05:37:38;;;;;;;12.00;5.20;;;16.30;99.90;;;;;;4996102;28;20029;-72
2022/09/07 05:40:04;;;;;;;13.55;5.07;;;16.40;99.90;;;;;;4995828;28;20060;-75
2022/09/07 05:42:30;;;;;;;12.65;5.53;;;16.40;99.90;;;;;;4995365;28;20038;-74
2022/09/07 05:44:56;;;;;;;12.57;5.70;;;16.40;99.90;;;;;;4994072;28;20360;-71
2022/09/07 05:47:21;;;;;;;17.13;6.03;;;16.40;99.90;;;;;;4995869;28;20032;-71
2022/09/07 05:49:47;;;;;;;13.52;4.63;;;16.50;99.90;;;;;;4995153;28;20065;-71
2022/09/07 05:52:13;;;;;;;13.80;5.50;;;16.50;99.90;;;;;;4995402;28;20306;-72
2022/09/07 05:54:39;;;;;;;9.80;4.85;;;16.40;99.90;;;;;;4995412;28;20033;-72
2022/09/07 05:57:06;;;;;;;9.30;4.65;;;16.50;99.90;;;;;;4995258;28;20034;-72
2022/09/07 05:59:32;;;;;;;14.18;5.13;;;16.50;99.90;;;;;;4995339;28;20033;-72
2022/09/07 06:01:58;;;;;;;10.40;4.93;;;16.50;99.90;;;;;;4995477;28;20019;-75
2022/09/07 06:04:24;;;;;;;11.23;5.03;;;16.50;99.90;;;;;;4995131;28;20027;-72
2022/09/07 06:06:49;;;;;;;8.20;4.78;;;16.60;99.90;;;;;;4995393;28;20418;-72
2022/09/07 06:09:15;;;;;;;8.68;4.15;;;16.60;99.90;;;;;;4993652;28;20022;-72
2022/09/07 06:11:40;;;;;;;11.40;4.45;;;16.60;99.90;;;;;;4995253;28;20061;-74
2022/09/07 06:14:06;;;;;;;10.32;4.78;;;16.50;99.90;;;;;;4993798;28;20033;-73
2022/09/07 06:16:35;;;;;;;11.13;4.32;;;16.60;99.90;;;;;;4995074;28;20020;-72
2022/09/07 06:19:05;;;;;;;11.50;4.70;;;16.60;99.90;;;;;;4995156;28;20022;-73
2022/09/07 06:21:34;;;;;;;11.05;4.97;;;16.60;99.90;;;;;;4995122;28;20070;-72
2022/09/07 06:24:00;;;;;;;8.80;5.10;;;16.60;99.90;;;;;;4994946;28;20022;-76
2022/09/07 06:26:26;;;;;;;13.90;4.97;;;16.60;99.90;;;;;;4993427;28;20045;-72
2022/09/07 06:28:51;;;;;;;8.82;5.22;;;16.70;99.90;;;;;;4994959;28;20038;-72
2022/09/07 06:31:19;;;;;;;13.10;4.60;;;16.70;99.90;;;;;;4994773;28;20084;-73
2022/09/07 06:33:46;;;;;;;6.88;3.90;;;16.80;99.90;;;;;;4994699;28;20030;-73
2022/09/07 06:36:17;;;;;;;8.98;4.45;;;16.80;99.90;;;;;;4994891;28;20073;-73
2022/09/07 06:38:43;;;;;;;6.82;4.03;;;16.90;99.90;;;;;;4994767;28;20026;-72
2022/09/07 06:41:13;;;;;;;7.82;3.72;;;17.00;99.90;;;;;;4994848;28;20049;-72
2022/09/07 06:43:39;;;;;;;6.95;4.05;;;17.00;99.90;;;;;;4994507;28;20453;-73
2022/09/07 06:46:05;;;;;;;6.13;3.60;;;17.10;99.90;;;;;;4994164;28;20046;-71
2022/09/07 06:48:32;;;;;;;10.23;4.07;;;17.10;99.90;;;;;;4994201;28;20030;-73
2022/09/07 06:51:00;;;;;;;9.27;3.92;;;17.10;99.90;;;;;;4994024;28;20061;-73
2022/09/07 06:53:26;;;;;;;7.43;3.78;;;17.20;99.90;;;;;;4994467;28;20065;-72
2022/09/07 06:55:52;;;;;;;6.03;3.80;;;17.30;99.90;;;;;;4994480;28;20029;-71
2022/09/07 06:58:18;;;;;;;8.68;3.92;;;17.40;99.90;;;;;;4992847;28;20026;-72
2022/09/07 07:00:43;;;;;;;8.40;4.07;;;17.40;99.90;;;;;;4993922;28;20030;-71
2022/09/07 07:03:09;;;;;;;8.93;4.45;;;17.50;99.90;;;;;;4994284;28;20105;-72
2022/09/07 07:05:34;;;;;;;8.02;3.90;;;17.60;99.90;;;;;;4994123;28;20031;-72
2022/09/07 07:08:00;;;;;;;5.65;3.45;;;17.70;99.90;;;;;;4994385;28;20022;-73
2022/09/07 07:10:26;;;;;;;7.60;3.50;;;17.70;99.90;;;;;;4993592;28;20588;-73
2022/09/07 07:12:55;;;;;;;7.35;3.83;;;17.70;99.90;;;;;;4994267;28;20018;-73
2022/09/07 07:15:22;;;;;;;5.45;3.30;;;17.80;99.90;;;;;;4992584;28;20026;-72
2022/09/07 07:17:47;;;;;;;10.68;3.67;;;17.80;99.90;;;;;;4993920;28;20033;-73
2022/09/07 07:20:13;;;;;;;7.50;3.65;;;17.90;99.90;;;;;;4993659;28;20026;-71
2022/09/07 07:22:38;;;;;;;7.07;3.80;;;18.00;99.90;;;;;;4993820;28;20108;-71
2022/09/07 07:25:04;;;;;;;7.63;3.83;;;18.10;99.90;;;;;;4993663;28;20050;-71
2022/09/07 07:27:33;;;;;;;7.47;3.78;;;18.20;99.90;;;;;;4993597;28;20026;-73
2022/09/07 07:29:58;;;;;;;6.10;3.22;;;18.30;99.90;;;;;;4993775;28;20032;-74
2022/09/07 07:32:24;;;;;;;7.38;3.03;;;18.50;99.90;;;;;;4994053;28;20026;-71
2022/09/07 07:34:49;;;;;;;6.47;3.40;;;18.60;99.90;;;;;;4993528;28;20110;-76
2022/09/07 07:37:16;;;;;;;7.43;3.03;;;18.90;99.90;;;;;;4992822;28;20030;-70
2022/09/07 07:39:41;;;;;;;5.35;2.80;;;19.10;99.90;;;;;;4993793;28;20018;-72
2022/09/07 07:42:08;;;;;;;5.47;2.80;;;19.20;99.90;;;;;;4993484;28;20033;-74
2022/09/07 07:44:33;;;;;;;7.68;3.20;;;19.50;99.90;;;;;;4993370;28;20033;-71
2022/09/07 07:46:59;;;;;;;9.73;4.35;;;19.80;99.90;;;;;;4993238;28;20034;-74
2022/09/07 07:49:25;;;;;;;6.07;3.20;;;20.20;99.90;;;;;;4993249;28;20030;-71
2022/09/07 07:51:53;;;;;;;6.30;3.15;;;20.70;99.90;;;;;;4993486;28;20105;-73
2022/09/07 07:54:19;;;;;;;6.53;3.78;;;21.40;99.90;;;;;;4991524;28;20018;-71
2022/09/07 07:56:44;;;;;;;7.05;3.05;;;22.10;99.90;;;;;;4992952;28;20452;-70
2022/09/07 07:59:10;;;;;;;7.53;3.03;;;22.60;99.90;;;;;;4992974;28;20039;-70
2022/09/07 08:01:36;;;;;;;6.07;3.40;;;23.30;99.90;;;;;;4992860;28;20034;-70
2022/09/07 08:04:01;;;;;;;6.20;3.13;;;23.80;99.90;;;;;;4992808;28;20109;-70
2022/09/07 08:06:27;;;;;;;6.30;2.97;;;24.70;99.90;;;;;;4992867;28;20037;-70
2022/09/07 08:08:54;;;;;;;5.80;3.30;;;25.40;99.90;;;;;;4993224;28;20022;-70
2022/09/07 08:11:21;;;;;;;5.80;3.13;;;25.70;99.90;;;;;;4993027;28;20503;-71
2022/09/07 08:13:48;;;;;;;11.30;3.78;;;25.70;99.90;;;;;;4992996;28;20031;-69
2022/09/07 08:16:15;;;;;;;6.70;4.00;;;25.60;99.90;;;;;;4992321;28;20028;-70
2022/09/07 08:18:41;;;;;;;7.07;4.18;;;25.60;99.90;;;;;;4992734;28;20049;-70
2022/09/07 08:21:11;;;;;;;8.02;4.57;;;25.80;99.90;;;;;;4992653;28;20026;-70
2022/09/07 08:23:37;;;;;;;11.77;4.47;;;26.10;99.90;;;;;;4992547;28;20050;-70
2022/09/07 08:26:04;;;;;;;8.02;4.70;;;26.60;99.90;;;;;;4992012;28;20042;-70
2022/09/07 08:28:32;;;;;;;10.88;4.93;;;27.10;99.70;;;;;;4992523;28;20034;-70
2022/09/07 08:30:58;;;;;;;7.90;4.25;;;27.80;99.10;;;;;;4992623;28;20046;-70
2022/09/07 08:33:24;;;;;;;5.88;4.15;;;28.50;96.90;;;;;;4991628;28;20050;-72
2022/09/07 08:36:01;;;;;;;8.38;5.10;;;28.30;96.30;;;;;;4992675;28;20105;-72
2022/09/07 08:38:31;;;;;;;8.93;4.68;;;28.20;96.90;;;;;;4992653;28;20037;-70
2022/09/07 08:40:58;;;;;;;6.07;3.53;;;28.40;97.00;;;;;;4992995;28;20043;-69
2022/09/07 08:44:13;;;;;;;8.73;5.18;;;28.70;95.30;;;;;;4990947;28;20022;-71
2022/09/07 08:46:53;;;;;;;8.65;5.00;;;28.70;96.00;;;;;;4969551;28;20495;-69
2022/09/07 08:49:30;;;;;;;9.10;4.85;;;29.10;95.10;;;;;;4992571;28;20377;-71
2022/09/07 08:52:01;;;;;;;9.30;4.93;;;29.40;94.50;;;;;;4996601;28;20033;-68
2022/09/07 08:54:27;;;;;;;7.28;5.53;;;29.80;94.80;;;;;;4996882;28;20037;-70
2022/09/07 08:56:56;;;;;;;8.50;4.72;;;30.30;94.00;;;;;;4996738;28;20038;-69
2022/09/07 08:59:29;;;;;;;9.90;4.55;;;30.50;93.70;;;;;;4995655;28;20106;-72
2022/09/07 09:01:54;;;;;;;8.85;4.25;;;30.70;93.10;;;;;;4995994;28;20033;-73
2022/09/07 09:04:25;;;;;;;6.68;4.22;;;30.90;91.80;;;;;;4994177;28;20022;-68
2022/09/07 09:07:13;;;;;;;6.47;4.72;;;30.70;91.70;;;;;;4995403;28;20029;-69
2022/09/07 09:10:16;;;;;;;5.78;3.88;;;30.80;91.80;;;;;;4993258;28;20404;-71
2022/09/07 09:12:56;;;;;;;6.50;4.30;;;30.90;91.20;;;;;;4953780;29;20242;-69
2022/09/07 09:15:38;;;;;;;4.97;3.67;;;31.10;91.60;;;;;;4973072;28;20050;-69
2022/09/07 09:18:04;;;;;;;10.02;4.22;;;31.20;90.10;;;;;;4986465;28;20033;-70
2022/09/07 09:20:45;;;;;;;5.53;4.18;;;31.20;91.10;;;;;;4996192;28;20030;-69
2022/09/07 09:23:13;;;;;;;5.20;4.03;;;31.50;91.00;;;;;;4994873;28;20022;-69
2022/09/07 09:25:52;;;;;;;7.18;4.07;;;32.20;90.70;;;;;;4996053;28;20038;-70
2022/09/07 09:28:17;;;;;;;6.82;3.70;;;32.20;88.80;;;;;;4995929;28;20034;-71
2022/09/07 09:30:43;;;;;;;5.68;3.53;;;31.90;88.60;;;;;;4995745;28;20026;-70
2022/09/07 09:33:17;;;;;;;6.50;4.15;;;31.60;89.30;;;;;;4995776;28;20038;-72
2022/09/07 09:35:49;;;;;;;5.68;3.60;;;31.50;90.50;;;;;;4996289;28;20456;-69
2022/09/07 09:38:35;;;;;;;8.63;3.50;;;31.90;90.40;;;;;;4995662;28;20417;-69
2022/09/07 09:41:19;;;;;;;6.90;3.30;;;32.40;87.70;;;;;;4995780;28;20089;-73
2022/09/07 09:43:52;;;;;;;4.95;3.08;;;32.40;86.50;;;;;;4995774;28;20080;-69
2022/09/07 09:46:21;;;;;;;5.20;3.25;;;32.20;86.70;;;;;;4995513;28;20061;-69
2022/09/07 09:49:03;;;;;;;7.45;3.75;;;32.00;86.70;;;;;;4995355;28;20026;-70
2022/09/07 09:51:32;;;;;;;7.07;3.70;;;31.30;89.50;;;;;;4995567;28;20027;-73
2022/09/07 09:54:06;;;;;;;7.00;3.00;;;30.60;90.20;;;;;;4995128;28;20037;-68
2022/09/07 09:56:42;;;;;;;4.40;3.03;;;29.90;90.70;;;;;;4993002;28;20547;-69
2022/09/07 09:59:17;;;;;;;6.00;3.10;;;29.90;90.50;;;;;;4994527;28;20037;-70
2022/09/07 10:01:45;;;;;;;5.90;2.90;;;30.00;90.50;;;;;;4992513;28;20022;-70
2022/09/07 10:04:22;;;;;;;4.82;2.83;;;30.60;90.70;;;;;;4995477;28;20138;-69
2022/09/07 10:06:53;;;;;;;6.03;2.95;;;31.20;89.00;;;;;;4995217;28;20073;-67
2022/09/07 10:09:25;;;;;;;6.65;3.10;;;31.40;90.10;;;;;;4995279;28;20445;-68
2022/09/07 10:11:58;;;;;;;6.47;2.55;;;32.10;86.90;;;;;;4993907;28;20026;-70
2022/09/07 10:14:32;;;;;;;4.97;2.13;;;32.70;86.70;;;;;;4995064;28;20503;-68
2022/09/07 10:16:59;;;;;;;4.80;1.88;;;33.20;84.70;;;;;;4993720;28;20022;-70
2022/09/07 10:19:37;;;;;;;5.38;2.30;;;33.00;82.20;;;;;;4994936;28;20065;-69
2022/09/07 10:22:19;;;;;;;7.90;1.95;;;32.80;83.90;;;;;;4992543;28;20093;-70
2022/09/07 10:24:45;;;;;;;4.13;2.10;;;33.00;83.70;;;;;;4987986;28;20026;-67
2022/09/07 10:27:36;;;;;;;3.65;1.92;;;33.70;83.70;;;;;;4994486;28;20460;-67
2022/09/07 10:30:05;;;;;;;;;;;34.10;79.10;;;;;;4993281;28;20469;-68
2022/09/07 10:33:02;;;;;;;6.38;2.05;;;33.30;79.60;;;;;;4993351;28;19913;-68
2022/09/07 10:35:33;;;;;;;7.93;1.95;;;32.60;81.50;;;;;;4992682;28;20022;-69
2022/09/07 10:38:16;;;;;;;11.52;2.80;;;32.00;81.30;;;;;;4994533;28;20026;-69
2022/09/07 10:40:57;;;;;;;9.82;2.15;;;32.20;83.40;;;;;;4993132;28;20034;-70
2022/09/07 10:43:40;;;;;;;7.15;1.90;;;32.80;81.90;;;;;;4991600;28;20030;-68
2022/09/07 10:46:14;;;;;;;7.95;1.92;;;33.00;80.90;;;;;;4993282;28;20117;-69
2022/09/07 10:49:05;;;;;;;6.82;2.15;;;32.50;81.20;;;;;;4991457;28;20018;-71
2022/09/07 10:51:39;;;;;;;7.30;1.88;;;31.70;83.70;;;;;;4974831;28;20499;-68
2022/09/07 10:54:18;;;;;;;4.75;1.42;;;31.20;84.40;;;;;;4993586;28;20027;-69
2022/09/07 10:57:11;;;;;;;4.53;2.28;;;30.80;83.40;;;;;;4993871;28;20110;-69
2022/09/07 11:00:11;;;;;;;9.48;2.60;;;31.10;85.60;;;;;;4974377;28;20041;-70
2022/09/07 11:02:59;;;;;;;6.68;2.50;;;31.30;86.30;;;;;;4977422;28;20836;-68
2022/09/07 11:05:29;;;;;;;6.95;2.40;;;31.70;86.80;;;;;;4974613;28;20417;-70
2022/09/07 11:08:16;;;;;;;7.65;2.00;;;32.30;85.70;;;;;;4973292;28;20029;-69
2022/09/07 11:10:55;;;;;;;7.93;2.17;;;32.60;84.90;;;;;;4992120;28;20045;-69
2022/09/07 11:13:27;;;;;;;9.25;3.10;;;32.40;84.10;;;;;;4992897;28;20377;-69
2022/09/07 11:16:04;;;;;;;8.38;2.47;;;32.00;84.00;;;;;;4993990;28;20022;-68
2022/09/07 11:18:54;;;;;;;8.55;2.40;;;31.50;84.70;;;;;;4993358;28;20544;-70
2022/09/07 11:21:25;;;;;;;7.97;2.30;;;31.50;85.10;;;;;;4993779;28;20073;-68
2022/09/07 11:24:21;;;;;;;8.05;2.40;;;32.10;84.20;;;;;;4993606;28;20465;-71
2022/09/07 11:26:53;;;;;;;9.82;2.28;;;33.00;82.60;;;;;;4993515;28;20464;-70
2022/09/07 11:29:35;;;;;;;4.88;1.85;;;34.00;80.40;;;;;;4993088;28;20456;-71
2022/09/07 11:32:21;;;;;;;6.40;2.25;;;34.80;77.60;;;;;;4993380;28;20468;-70
2022/09/07 11:35:02;;;;;;;6.72;2.40;;;35.50;77.50;;;;;;4992197;28;20022;-69
2022/09/07 11:37:58;;;;;;;8.38;2.33;;;36.60;76.10;;;;;;4993383;28;20029;-69
2022/09/07 11:40:41;;;;;;;7.03;1.98;;;37.50;73.80;;;;;;4993469;28;20035;-71
2022/09/07 11:43:12;;;;;;;8.07;2.50;;;37.60;73.30;;;;;;4992313;28;20038;-72
2022/09/07 11:45:40;;;;;;;9.00;2.22;;;37.90;72.30;;;;;;4993252;28;20030;-71
2022/09/07 11:48:43;;;;;;;8.60;2.22;;;38.10;71.20;;;;;;4993549;28;20364;-70
2022/09/07 11:51:35;;;;;;;8.57;2.20;;;37.90;70.40;;;;;;4993259;28;20078;-70
2022/09/07 11:54:26;;;;;;;10.05;2.25;;;38.00;70.70;;;;;;4991932;28;20143;-69
2022/09/07 11:57:17;;;;;;;11.07;2.45;;;38.00;70.50;;;;;;4988844;28;20077;-71
2022/09/07 11:59:55;;;;;;;10.93;2.67;;;37.60;69.80;;;;;;4993509;28;20467;-70
2022/09/07 12:02:58;;;;;;;9.07;2.45;;;36.60;71.20;;;;;;4993197;28;20368;-71
2022/09/07 12:05:55;;;;;;;8.60;2.58;;;35.30;71.80;;;;;;4993119;28;20022;-71
2022/09/07 12:09:06;;;;;;;6.65;2.10;;;34.20;73.20;;;;;;4993328;28;20484;-70
2022/09/07 12:12:04;;;;;;;9.57;2.63;;;34.20;72.20;;;;;;4992853;28;20055;-70
2022/09/07 12:14:39;;;;;;;4.80;1.98;;;34.70;73.80;;;;;;4993012;28;20064;-70
2022/09/07 12:17:30;;;;;;;8.40;1.95;;;34.40;73.40;;;;;;4992808;28;20018;-70
2022/09/07 12:20:16;;;;;;;8.63;2.50;;;33.60;74.10;;;;;;4993069;28;20108;-71
2022/09/07 12:22:59;;;;;;;8.35;1.98;;;33.20;75.30;;;;;;4992675;28;20034;-71
2022/09/07 12:25:25;;;;;;;8.35;2.30;;;33.60;76.20;;;;;;4996581;28;20038;-71
2022/09/07 12:27:51;;;;;;;4.50;1.92;;;34.10;76.10;;;;;;4996593;28;20444;-72
2022/09/07 12:30:20;;;;;;;6.18;2.33;;;34.40;73.00;;;;;;4996899;28;20022;-73
2022/09/07 12:32:45;;;;;;;7.97;1.70;;;34.70;74.70;;;;;;4995796;28;20366;-72
2022/09/07 12:35:26;;;;;;;4.45;1.70;;;35.50;70.80;;;;;;4996581;28;20113;-72
2022/09/07 12:37:53;;;;;;;6.22;1.83;;;35.90;69.40;;;;;;4996830;28;20467;-71
2022/09/07 12:40:28;;;;;;;9.50;2.22;;;35.70;69.10;;;;;;4996521;28;20022;-72
2022/09/07 12:43:12;;;;;;;7.28;2.20;;;35.30;71.80;;;;;;4996501;28;20022;-72
2022/09/07 12:45:37;;;;;;;9.68;1.95;;;34.80;73.70;;;;;;4994568;28;20061;-71
2022/09/07 12:48:15;;;;;;;10.52;2.42;;;34.60;72.90;;;;;;4996559;28;20445;-74
2022/09/07 12:51:02;;;;;;;7.40;2.08;;;34.20;74.60;;;;;;4996061;28;20025;-72
2022/09/07 12:53:36;;;;;;;7.95;3.15;;;33.70;74.50;;;;;;4996418;28;20026;-73
2022/09/07 12:56:30;;;;;;;7.22;2.35;;;32.90;76.50;;;;;;4996362;28;20030;-72
2022/09/07 12:59:18;;;;;;;9.55;2.92;;;32.40;77.10;;;;;;4996015;28;20041;-71
2022/09/07 13:02:37;;;;;;;7.15;2.20;;;31.90;76.90;;;;;;4994967;28;20027;-71
2022/09/07 13:05:24;;;;;;;5.95;1.88;;;31.40;77.90;;;;;;4974267;28;20106;-73
2022/09/07 13:07:56;;;;;;;7.05;2.10;;;30.90;79.30;;;;;;4974491;28;20035;-74
2022/09/07 13:10:31;;;;;;;7.85;2.15;;;30.50;79.90;;;;;;4990387;28;20052;-71
2022/09/07 13:13:03;;;;;;;10.05;2.20;;;29.80;80.60;;;;;;4996428;28;20084;-73